sensor_id;sensor_type;location;lat;lon;timestamp;pressure;altitude;pressure_sealevel;temperature;humidity
27437;BME280;14886;51.586;6.722;2023-08-20T00:03:20;1019.1;;;17.7;96.3
27437;BME280;14886;51.586;6.722;2023-08-20T00:08:21;1019.2;;;17.6;96.3
27437;BME280;14886;51.586;6.722;2023-08-20T00:12:21;1019.2;;;17.7;96.3
27437;BME280;14886;51.586;6.722;2023-08-20T00:13:21;1019.2;;;17.6;96.4
27437;BME280;14886;51.586;6.722;2023-08-20T00:15:21;1019.1;;;17.5;96.4
27437;BME280;14886;51.586;6.722;2023-08-20T00:21:22;1019.1;;;17.4;96.6
27437;BME280;14886;51.586;6.722;2023-08-20T00:31:23;1019.0;;;17.5;96.4
27437;BME280;14886;51.586;6.722;2023-08-20T00:32:23;1019.0;;;17.4;96.3
27437;BME280;14886;51.586;6.722;2023-08-20T00:34:23;1019.0;;;17.3;96.5
27437;BME280;14886;51.586;6.722;2023-08-20T00:46:24;1019.1;;;17.4;96.3
27437;BME280;14886;51.586;6.722;2023-08-20T00:49:24;1019.2;;;17.3;96.4
27437;BME280;14886;51.586;6.722;2023-08-20T00:54:25;1019.1;;;17.2;96.5
27437;BME280;14886;51.586;6.722;2023-08-20T01:03:26;1019.2;;;17.1;96.7
27437;BME280;14886;51.586;6.722;2023-08-20T01:10:29;1019.2;;;17.0;96.9
27437;BME280;14886;51.586;6.722;2023-08-20T01:16:27;1019.3;;;16.9;97.1
27437;BME280;14886;51.586;6.722;2023-08-20T01:23:35;1019.3;;;16.8;97.1
27437;BME280;14886;51.586;6.722;2023-08-20T01:26:34;1019.4;;;16.7;97.0
27437;BME280;14886;51.586;6.722;2023-08-20T01:27:33;1019.4;;;16.8;97.0
27437;BME280;14886;51.586;6.722;2023-08-20T01:35:29;1019.3;;;16.7;96.8
27437;BME280;14886;51.586;6.722;2023-08-20T01:36:29;1019.3;;;16.8;96.8
27437;BME280;14886;51.586;6.722;2023-08-20T01:37:29;1019.3;;;16.7;96.8
27437;BME280;14886;51.586;6.722;2023-08-20T01:41:30;1019.3;;;16.8;97.0
27437;BME280;14886;51.586;6.722;2023-08-20T01:42:30;1019.3;;;16.7;96.9
27437;BME280;14886;51.586;6.722;2023-08-20T01:48:30;1019.3;;;16.6;97.1
27437;BME280;14886;51.586;6.722;2023-08-20T01:52:31;1019.3;;;16.5;97.2
27437;BME280;14886;51.586;6.722;2023-08-20T02:06:32;1019.5;;;16.6;97.5
27437;BME280;14886;51.586;6.722;2023-08-20T02:07:32;1019.5;;;16.5;97.4
27437;BME280;14886;51.586;6.722;2023-08-20T02:11:33;1019.6;;;16.6;97.5
27437;BME280;14886;51.586;6.722;2023-08-20T02:19:33;1019.9;;;16.7;97.4
27437;BME280;14886;51.586;6.722;2023-08-20T02:23:34;1020.0;;;16.8;97.1
27437;BME280;14886;51.586;6.722;2023-08-20T02:25:34;1020.1;;;16.9;96.9
27437;BME280;14886;51.586;6.722;2023-08-20T02:27:34;1020.1;;;17.0;96.7
27437;BME280;14886;51.586;6.722;2023-08-20T02:34:35;1020.0;;;16.9;96.6
27437;BME280;14886;51.586;6.722;2023-08-20T02:36:35;1019.9;;;17.0;96.2
27437;BME280;14886;51.586;6.722;2023-08-20T02:39:35;1019.9;;;16.9;96.3
27437;BME280;14886;51.586;6.722;2023-08-20T02:42:35;1019.9;;;17.0;96.2
27437;BME280;14886;51.586;6.722;2023-08-20T02:49:36;1019.9;;;17.1;95.7
27437;BME280;14886;51.586;6.722;2023-08-20T02:51:36;1019.9;;;17.0;95.9
27437;BME280;14886;51.586;6.722;2023-08-20T02:52:36;1019.9;;;16.9;95.9
27437;BME280;14886;51.586;6.722;2023-08-20T02:55:36;1019.9;;;16.8;96.4
27437;BME280;14886;51.586;6.722;2023-08-20T03:13:38;1020.0;;;16.9;96.8
27437;BME280;14886;51.586;6.722;2023-08-20T03:15:38;1020.0;;;16.8;97.0
27437;BME280;14886;51.586;6.722;2023-08-20T03:16:38;1020.0;;;16.7;97.0
27437;BME280;14886;51.586;6.722;2023-08-20T03:18:38;1020.0;;;16.8;97.1
27437;BME280;14886;51.586;6.722;2023-08-20T03:21:38;1020.0;;;16.9;96.8
27437;BME280;14886;51.586;6.722;2023-08-20T03:24:39;1019.9;;;17.0;96.6
27437;BME280;14886;51.586;6.722;2023-08-20T03:30:39;1019.9;;;17.1;96.1
27437;BME280;14886;51.586;6.722;2023-08-20T03:34:40;1019.9;;;17.0;96.1
27437;BME280;14886;51.586;6.722;2023-08-20T03:38:40;1020.0;;;16.9;96.6
27437;BME280;14886;51.586;6.722;2023-08-20T03:40:40;1020.0;;;17.0;96.5
27437;BME280;14886;51.586;6.722;2023-08-20T03:47:41;1020.0;;;16.9;96.6
27437;BME280;14886;51.586;6.722;2023-08-20T03:51:41;1020.0;;;17.0;96.6
27437;BME280;14886;51.586;6.722;2023-08-20T03:57:42;1020.1;;;16.9;96.6
27437;BME280;14886;51.586;6.722;2023-08-20T03:58:42;1020.1;;;17.0;96.6
27437;BME280;14886;51.586;6.722;2023-08-20T04:01:42;1020.0;;;17.1;96.5
27437;BME280;14886;51.586;6.722;2023-08-20T04:04:43;1020.0;;;17.2;96.2
27437;BME280;14886;51.586;6.722;2023-08-20T04:06:43;1019.9;;;17.3;95.8
27437;BME280;14886;51.586;6.722;2023-08-20T04:08:43;1020.0;;;17.2;95.7
27437;BME280;14886;51.586;6.722;2023-08-20T04:11:43;1020.0;;;17.1;96.2
27437;BME280;14886;51.586;6.722;2023-08-20T04:20:44;1020.0;;;17.2;96.1
27437;BME280;14886;51.586;6.722;2023-08-20T04:28:45;1020.0;;;17.3;96.1
27437;BME280;14886;51.586;6.722;2023-08-20T04:36:46;1020.1;;;17.2;96.0
27437;BME280;14886;51.586;6.722;2023-08-20T04:37:46;1020.1;;;17.1;96.2
27437;BME280;14886;51.586;6.722;2023-08-20T04:39:46;1020.1;;;17.0;96.6
27437;BME280;14886;51.586;6.722;2023-08-20T04:41:46;1020.2;;;16.9;96.8
27437;BME280;14886;51.586;6.722;2023-08-20T04:43:46;1020.2;;;16.8;96.9
27437;BME280;14886;51.586;6.722;2023-08-20T04:45:46;1020.2;;;16.9;96.9
27437;BME280;14886;51.586;6.722;2023-08-20T04:51:47;1020.2;;;17.0;96.5
27437;BME280;14886;51.586;6.722;2023-08-20T04:54:47;1020.2;;;17.1;96.4
27437;BME280;14886;51.586;6.722;2023-08-20T04:56:47;1020.2;;;17.0;96.3
27437;BME280;14886;51.586;6.722;2023-08-20T04:57:47;1020.2;;;16.9;96.5
27437;BME280;14886;51.586;6.722;2023-08-20T04:59:48;1020.3;;;16.8;97.0
27437;BME280;14886;51.586;6.722;2023-08-20T05:00:48;1020.3;;;16.7;97.1
27437;BME280;14886;51.586;6.722;2023-08-20T05:04:48;1020.3;;;16.8;97.0
27437;BME280;14886;51.586;6.722;2023-08-20T05:05:48;1020.3;;;16.9;96.7
27437;BME280;14886;51.586;6.722;2023-08-20T05:07:48;1020.3;;;17.0;96.4
27437;BME280;14886;51.586;6.722;2023-08-20T05:13:49;1020.3;;;17.1;96.2
27437;BME280;14886;51.586;6.722;2023-08-20T05:28:50;1020.3;;;17.3;95.6
27437;BME280;14886;51.586;6.722;2023-08-20T05:29:50;1020.3;;;17.4;95.3
27437;BME280;14886;51.586;6.722;2023-08-20T05:30:54;1020.3;;;17.5;95.2
27437;BME280;14886;51.586;6.722;2023-08-20T05:31:51;1020.3;;;17.6;95.1
27437;BME280;14886;51.586;6.722;2023-08-20T05:32:51;1020.3;;;17.7;95.0
27437;BME280;14886;51.586;6.722;2023-08-20T05:34:51;1020.4;;;17.8;94.8
27437;BME280;14886;51.586;6.722;2023-08-20T05:35:51;1020.4;;;17.9;94.6
27437;BME280;14886;51.586;6.722;2023-08-20T05:36:51;1020.4;;;17.8;94.7
27437;BME280;14886;51.586;6.722;2023-08-20T05:38:51;1020.4;;;17.7;95.1
27437;BME280;14886;51.586;6.722;2023-08-20T05:44:52;1020.4;;;17.8;94.9
27437;BME280;14886;51.586;6.722;2023-08-20T05:45:52;1020.4;;;17.9;94.7
27437;BME280;14886;51.586;6.722;2023-08-20T05:46:52;1020.4;;;18.0;94.5
27437;BME280;14886;51.586;6.722;2023-08-20T05:47:52;1020.4;;;18.1;94.1
27437;BME280;14886;51.586;6.722;2023-08-20T05:48:52;1020.4;;;18.2;93.8
27437;BME280;14886;51.586;6.722;2023-08-20T05:50:52;1020.4;;;18.3;93.3
27437;BME280;14886;51.586;6.722;2023-08-20T05:51:52;1020.4;;;18.4;93.1
27437;BME280;14886;51.586;6.722;2023-08-20T05:52:53;1020.4;;;18.5;92.9
27437;BME280;14886;51.586;6.722;2023-08-20T05:57:53;1020.3;;;18.6;92.5
27437;BME280;14886;51.586;6.722;2023-08-20T06:00:53;1020.3;;;18.7;92.3
27437;BME280;14886;51.586;6.722;2023-08-20T06:03:54;1020.4;;;18.8;91.9
27437;BME280;14886;51.586;6.722;2023-08-20T06:04:54;1020.4;;;18.9;91.7
27437;BME280;14886;51.586;6.722;2023-08-20T06:05:55;1020.4;;;19.0;91.5
27437;BME280;14886;51.586;6.722;2023-08-20T06:08:54;1020.4;;;19.1;91.2
27437;BME280;14886;51.586;6.722;2023-08-20T06:10:54;1020.5;;;19.2;91.2
27437;BME280;14886;51.586;6.722;2023-08-20T06:13:55;1020.5;;;19.3;90.6
27437;BME280;14886;51.586;6.722;2023-08-20T06:14:55;1020.5;;;19.4;90.4
27437;BME280;14886;51.586;6.722;2023-08-20T06:16:55;1020.5;;;19.3;90.6
27437;BME280;14886;51.586;6.722;2023-08-20T06:17:55;1020.5;;;19.4;90.5
27437;BME280;14886;51.586;6.722;2023-08-20T06:20:56;1020.5;;;19.2;91.5
27437;BME280;14886;51.586;6.722;2023-08-20T06:22:56;1020.6;;;19.3;91.3
27437;BME280;14886;51.586;6.722;2023-08-20T06:23:56;1020.6;;;19.4;91.2
27437;BME280;14886;51.586;6.722;2023-08-20T06:26:56;1020.6;;;19.5;90.8
27437;BME280;14886;51.586;6.722;2023-08-20T06:27:56;1020.6;;;19.6;90.8
27437;BME280;14886;51.586;6.722;2023-08-20T06:28:56;1020.6;;;19.7;90.4
27437;BME280;14886;51.586;6.722;2023-08-20T06:29:56;1020.6;;;19.8;90.3
27437;BME280;14886;51.586;6.722;2023-08-20T06:31:56;1020.6;;;20.0;89.5
27437;BME280;14886;51.586;6.722;2023-08-20T06:32:57;1020.6;;;20.3;89.0
27437;BME280;14886;51.586;6.722;2023-08-20T06:33:57;1020.6;;;20.6;88.2
27437;BME280;14886;51.586;6.722;2023-08-20T06:34:57;1020.6;;;20.9;87.2
27437;BME280;14886;51.586;6.722;2023-08-20T06:35:57;1020.6;;;21.0;86.5
27437;BME280;14886;51.586;6.722;2023-08-20T06:37:57;1020.6;;;20.9;87.0
27437;BME280;14886;51.586;6.722;2023-08-20T06:39:57;1020.6;;;21.2;86.0
27437;BME280;14886;51.586;6.722;2023-08-20T06:40:57;1020.6;;;21.4;85.3
27437;BME280;14886;51.586;6.722;2023-08-20T06:41:58;1020.6;;;21.5;85.1
27437;BME280;14886;51.586;6.722;2023-08-20T06:44:58;1020.6;;;21.9;83.5
27437;BME280;14886;51.586;6.722;2023-08-20T06:45:58;1020.6;;;22.0;83.2
27437;BME280;14886;51.586;6.722;2023-08-20T06:46:58;1020.6;;;21.6;84.6
27437;BME280;14886;51.586;6.722;2023-08-20T06:47:58;1020.6;;;22.0;83.4
27437;BME280;14886;51.586;6.722;2023-08-20T06:48:58;1020.6;;;22.4;82.7
27437;BME280;14886;51.586;6.722;2023-08-20T06:49:58;1020.6;;;22.8;80.6
27437;BME280;14886;51.586;6.722;2023-08-20T06:50:58;1020.6;;;22.7;80.9
27437;BME280;14886;51.586;6.722;2023-08-20T06:51:58;1020.5;;;22.4;82.0
27437;BME280;14886;51.586;6.722;2023-08-20T06:54:59;1020.6;;;22.7;81.1
27437;BME280;14886;51.586;6.722;2023-08-20T06:55:59;1020.6;;;22.8;81.0
27437;BME280;14886;51.586;6.722;2023-08-20T06:56:59;1020.6;;;22.9;81.0
27437;BME280;14886;51.586;6.722;2023-08-20T06:57:59;1020.6;;;22.8;81.2
27437;BME280;14886;51.586;6.722;2023-08-20T06:58:59;1020.6;;;22.5;82.1
27437;BME280;14886;51.586;6.722;2023-08-20T06:59:59;1020.6;;;22.7;81.2
27437;BME280;14886;51.586;6.722;2023-08-20T07:00:59;1020.6;;;23.1;80.6
27437;BME280;14886;51.586;6.722;2023-08-20T07:01:59;1020.6;;;23.7;78.8
27437;BME280;14886;51.586;6.722;2023-08-20T07:02:59;1020.6;;;22.9;81.3
27437;BME280;14886;51.586;6.722;2023-08-20T07:04:59;1020.6;;;23.4;78.8
27437;BME280;14886;51.586;6.722;2023-08-20T07:06:00;1020.6;;;23.6;78.1
27437;BME280;14886;51.586;6.722;2023-08-20T07:07:00;1020.6;;;23.9;77.6
27437;BME280;14886;51.586;6.722;2023-08-20T07:08:00;1020.6;;;23.6;78.4
27437;BME280;14886;51.586;6.722;2023-08-20T07:09:00;1020.6;;;23.9;77.9
27437;BME280;14886;51.586;6.722;2023-08-20T07:10:00;1020.6;;;24.0;77.1
27437;BME280;14886;51.586;6.722;2023-08-20T07:11:00;1020.6;;;23.9;77.7
27437;BME280;14886;51.586;6.722;2023-08-20T07:12:01;1020.6;;;23.7;78.2
27437;BME280;14886;51.586;6.722;2023-08-20T07:13:00;1020.6;;;23.5;79.3
27437;BME280;14886;51.586;6.722;2023-08-20T07:14:00;1020.6;;;23.4;79.8
27437;BME280;14886;51.586;6.722;2023-08-20T07:15:00;1020.6;;;23.5;79.3
27437;BME280;14886;51.586;6.722;2023-08-20T07:16:00;1020.6;;;23.7;79.1
27437;BME280;14886;51.586;6.722;2023-08-20T07:17:01;1020.6;;;24.2;77.6
27437;BME280;14886;51.586;6.722;2023-08-20T07:19:01;1020.6;;;24.5;76.6
27437;BME280;14886;51.586;6.722;2023-08-20T07:20:01;1020.6;;;24.1;77.8
27437;BME280;14886;51.586;6.722;2023-08-20T07:21:01;1020.6;;;24.0;78.2
27437;BME280;14886;51.586;6.722;2023-08-20T07:22:01;1020.6;;;23.8;78.9
27437;BME280;14886;51.586;6.722;2023-08-20T07:23:01;1020.6;;;23.6;79.6
27437;BME280;14886;51.586;6.722;2023-08-20T07:24:01;1020.6;;;23.7;79.0
27437;BME280;14886;51.586;6.722;2023-08-20T07:25:01;1020.6;;;23.5;79.6
27437;BME280;14886;51.586;6.722;2023-08-20T07:26:05;1020.6;;;24.1;78.0
27437;BME280;14886;51.586;6.722;2023-08-20T07:27:01;1020.6;;;24.5;76.9
27437;BME280;14886;51.586;6.722;2023-08-20T07:28:02;1020.6;;;25.1;75.4
27437;BME280;14886;51.586;6.722;2023-08-20T07:29:02;1020.6;;;24.8;76.4
27437;BME280;14886;51.586;6.722;2023-08-20T07:30:03;1020.6;;;24.4;77.4
27437;BME280;14886;51.586;6.722;2023-08-20T07:31:02;1020.6;;;25.0;75.7
27437;BME280;14886;51.586;6.722;2023-08-20T07:32:02;1020.6;;;24.5;77.5
27437;BME280;14886;51.586;6.722;2023-08-20T07:33:02;1020.6;;;24.6;76.9
27437;BME280;14886;51.586;6.722;2023-08-20T07:34:02;1020.6;;;25.2;75.1
27437;BME280;14886;51.586;6.722;2023-08-20T07:35:02;1020.6;;;25.6;74.2
27437;BME280;14886;51.586;6.722;2023-08-20T07:36:02;1020.6;;;25.5;74.8
27437;BME280;14886;51.586;6.722;2023-08-20T07:37:03;1020.6;;;26.2;72.4
27437;BME280;14886;51.586;6.722;2023-08-20T07:38:03;1020.6;;;26.3;71.9
27437;BME280;14886;51.586;6.722;2023-08-20T07:39:03;1020.6;;;25.8;73.9
27437;BME280;14886;51.586;6.722;2023-08-20T07:40:03;1020.6;;;24.8;76.2
27437;BME280;14886;51.586;6.722;2023-08-20T07:41:03;1020.7;;;25.3;75.8
27437;BME280;14886;51.586;6.722;2023-08-20T07:42:03;1020.7;;;26.2;72.8
27437;BME280;14886;51.586;6.722;2023-08-20T07:43:03;1020.7;;;26.1;72.1
27437;BME280;14886;51.586;6.722;2023-08-20T07:44:03;1020.7;;;25.9;72.5
27437;BME280;14886;51.586;6.722;2023-08-20T07:45:03;1020.7;;;26.0;72.5
27437;BME280;14886;51.586;6.722;2023-08-20T07:46:03;1020.7;;;26.5;70.5
27437;BME280;14886;51.586;6.722;2023-08-20T07:47:03;1020.7;;;26.9;69.5
27437;BME280;14886;51.586;6.722;2023-08-20T07:48:04;1020.7;;;26.6;71.1
27437;BME280;14886;51.586;6.722;2023-08-20T07:49:04;1020.7;;;26.3;71.8
27437;BME280;14886;51.586;6.722;2023-08-20T07:50:04;1020.7;;;25.9;73.0
27437;BME280;14886;51.586;6.722;2023-08-20T07:51:04;1020.7;;;25.4;74.6
27437;BME280;14886;51.586;6.722;2023-08-20T07:52:04;1020.7;;;25.5;74.7
27437;BME280;14886;51.586;6.722;2023-08-20T07:53:05;1020.7;;;25.9;73.8
27437;BME280;14886;51.586;6.722;2023-08-20T07:54:06;1020.6;;;25.1;76.4
27437;BME280;14886;51.586;6.722;2023-08-20T07:55:05;1020.7;;;25.3;74.8
27437;BME280;14886;51.586;6.722;2023-08-20T07:56:04;1020.7;;;25.5;74.8
27437;BME280;14886;51.586;6.722;2023-08-20T07:57:04;1020.7;;;25.7;74.2
27437;BME280;14886;51.586;6.722;2023-08-20T07:58:04;1020.7;;;26.2;72.8
27437;BME280;14886;51.586;6.722;2023-08-20T07:59:04;1020.7;;;26.5;72.5
27437;BME280;14886;51.586;6.722;2023-08-20T08:00:05;1020.6;;;26.3;72.8
27437;BME280;14886;51.586;6.722;2023-08-20T08:02:05;1020.6;;;26.2;73.0
27437;BME280;14886;51.586;6.722;2023-08-20T08:03:05;1020.6;;;26.1;73.2
27437;BME280;14886;51.586;6.722;2023-08-20T08:04:05;1020.6;;;26.3;72.7
27437;BME280;14886;51.586;6.722;2023-08-20T08:05:05;1020.6;;;26.8;70.7
27437;BME280;14886;51.586;6.722;2023-08-20T08:06:05;1020.6;;;26.6;71.2
27437;BME280;14886;51.586;6.722;2023-08-20T08:08:05;1020.6;;;26.7;70.3
27437;BME280;14886;51.586;6.722;2023-08-20T08:10:06;1020.6;;;27.2;69.6
27437;BME280;14886;51.586;6.722;2023-08-20T08:11:05;1020.6;;;26.0;73.9
27437;BME280;14886;51.586;6.722;2023-08-20T08:12:06;1020.6;;;25.1;76.3
27437;BME280;14886;51.586;6.722;2023-08-20T08:13:06;1020.7;;;24.9;77.0
27437;BME280;14886;51.586;6.722;2023-08-20T08:14:06;1020.7;;;25.7;73.8
27437;BME280;14886;51.586;6.722;2023-08-20T08:15:06;1020.7;;;25.9;74.6
27437;BME280;14886;51.586;6.722;2023-08-20T08:16:06;1020.7;;;25.8;74.5
27437;BME280;14886;51.586;6.722;2023-08-20T08:17:06;1020.7;;;26.1;73.3
27437;BME280;14886;51.586;6.722;2023-08-20T08:18:06;1020.7;;;25.9;74.4
27437;BME280;14886;51.586;6.722;2023-08-20T08:19:06;1020.7;;;26.3;73.9
27437;BME280;14886;51.586;6.722;2023-08-20T08:20:07;1020.7;;;27.0;71.3
27437;BME280;14886;51.586;6.722;2023-08-20T08:21:06;1020.7;;;27.3;69.7
27437;BME280;14886;51.586;6.722;2023-08-20T08:23:07;1020.7;;;27.0;70.3
27437;BME280;14886;51.586;6.722;2023-08-20T08:24:07;1020.7;;;26.6;72.3
27437;BME280;14886;51.586;6.722;2023-08-20T08:25:07;1020.6;;;27.4;70.3
27437;BME280;14886;51.586;6.722;2023-08-20T08:26:07;1020.6;;;27.2;70.9
27437;BME280;14886;51.586;6.722;2023-08-20T08:27:07;1020.6;;;26.4;72.0
27437;BME280;14886;51.586;6.722;2023-08-20T08:28:07;1020.6;;;26.5;71.0
27437;BME280;14886;51.586;6.722;2023-08-20T08:29:07;1020.5;;;26.0;73.0
27437;BME280;14886;51.586;6.722;2023-08-20T08:30:07;1020.5;;;25.8;73.4
27437;BME280;14886;51.586;6.722;2023-08-20T08:31:07;1020.6;;;25.4;73.8
27437;BME280;14886;51.586;6.722;2023-08-20T08:32:07;1020.7;;;25.9;71.7
27437;BME280;14886;51.586;6.722;2023-08-20T08:33:08;1020.7;;;26.5;69.3
27437;BME280;14886;51.586;6.722;2023-08-20T08:34:08;1020.7;;;26.6;69.4
27437;BME280;14886;51.586;6.722;2023-08-20T08:35:08;1020.7;;;26.7;69.2
27437;BME280;14886;51.586;6.722;2023-08-20T08:36:08;1020.7;;;27.3;67.9
27437;BME280;14886;51.586;6.722;2023-08-20T08:37:08;1020.7;;;27.9;66.5
27437;BME280;14886;51.586;6.722;2023-08-20T08:38:08;1020.7;;;26.9;70.1
27437;BME280;14886;51.586;6.722;2023-08-20T08:40:08;1020.6;;;26.0;73.3
27437;BME280;14886;51.586;6.722;2023-08-20T08:41:09;1020.6;;;25.8;74.1
27437;BME280;14886;51.586;6.722;2023-08-20T08:42:08;1020.7;;;25.5;75.5
27437;BME280;14886;51.586;6.722;2023-08-20T08:43:08;1020.7;;;25.6;74.0
27437;BME280;14886;51.586;6.722;2023-08-20T08:44:09;1020.7;;;25.8;71.0
27437;BME280;14886;51.586;6.722;2023-08-20T08:45:09;1020.6;;;25.4;71.8
27437;BME280;14886;51.586;6.722;2023-08-20T08:46:12;1020.7;;;25.8;71.6
27437;BME280;14886;51.586;6.722;2023-08-20T08:47:09;1020.8;;;26.6;69.3
27437;BME280;14886;51.586;6.722;2023-08-20T08:48:09;1020.8;;;27.1;68.8
27437;BME280;14886;51.586;6.722;2023-08-20T08:49:11;1020.8;;;27.6;66.8
27437;BME280;14886;51.586;6.722;2023-08-20T08:50:09;1020.8;;;28.0;65.4
27437;BME280;14886;51.586;6.722;2023-08-20T08:51:09;1020.8;;;28.1;64.8
27437;BME280;14886;51.586;6.722;2023-08-20T08:53:09;1020.9;;;28.0;65.1
27437;BME280;14886;51.586;6.722;2023-08-20T08:55:09;1020.7;;;27.3;66.2
27437;BME280;14886;51.586;6.722;2023-08-20T08:56:09;1020.9;;;27.7;65.5
27437;BME280;14886;51.586;6.722;2023-08-20T08:57:09;1020.8;;;27.8;64.9
27437;BME280;14886;51.586;6.722;2023-08-20T08:58:10;1020.8;;;28.0;63.7
27437;BME280;14886;51.586;6.722;2023-08-20T09:00:10;1020.7;;;27.0;65.8
27437;BME280;14886;51.586;6.722;2023-08-20T09:01:10;1020.9;;;27.4;64.1
27437;BME280;14886;51.586;6.722;2023-08-20T09:02:10;1020.8;;;27.6;63.0
27437;BME280;14886;51.586;6.722;2023-08-20T09:03:10;1020.8;;;27.7;62.9
27437;BME280;14886;51.586;6.722;2023-08-20T09:04:10;1020.7;;;27.5;62.9
27437;BME280;14886;51.586;6.722;2023-08-20T09:05:12;1020.6;;;27.1;64.6
27437;BME280;14886;51.586;6.722;2023-08-20T09:06:10;1020.7;;;26.5;65.7
27437;BME280;14886;51.586;6.722;2023-08-20T09:07:11;1020.7;;;27.1;64.7
27437;BME280;14886;51.586;6.722;2023-08-20T09:08:10;1020.7;;;27.3;66.2
27437;BME280;14886;51.586;6.722;2023-08-20T09:09:10;1020.8;;;27.8;63.9
27437;BME280;14886;51.586;6.722;2023-08-20T09:10:11;1020.8;;;27.0;66.2
27437;BME280;14886;51.586;6.722;2023-08-20T09:11:11;1020.8;;;27.6;65.5
27437;BME280;14886;51.586;6.722;2023-08-20T09:12:12;1020.9;;;28.2;64.9
27437;BME280;14886;51.586;6.722;2023-08-20T09:13:11;1020.9;;;28.8;63.1
27437;BME280;14886;51.586;6.722;2023-08-20T09:15:11;1020.9;;;27.8;65.3
27437;BME280;14886;51.586;6.722;2023-08-20T09:16:11;1020.9;;;26.9;65.1
27437;BME280;14886;51.586;6.722;2023-08-20T09:17:11;1020.9;;;27.5;63.2
27437;BME280;14886;51.586;6.722;2023-08-20T09:18:11;1020.8;;;27.4;63.8
27437;BME280;14886;51.586;6.722;2023-08-20T09:19:11;1020.8;;;27.9;62.8
27437;BME280;14886;51.586;6.722;2023-08-20T09:20:11;1020.9;;;28.3;60.7
27437;BME280;14886;51.586;6.722;2023-08-20T09:21:12;1020.8;;;27.4;64.4
27437;BME280;14886;51.586;6.722;2023-08-20T09:22:12;1020.8;;;27.6;63.7
27437;BME280;14886;51.586;6.722;2023-08-20T09:23:12;1020.7;;;27.3;64.5
27437;BME280;14886;51.586;6.722;2023-08-20T09:24:12;1020.9;;;26.8;66.2
27437;BME280;14886;51.586;6.722;2023-08-20T09:25:15;1020.8;;;26.5;66.4
27437;BME280;14886;51.586;6.722;2023-08-20T09:26:13;1020.8;;;26.1;67.2
27437;BME280;14886;51.586;6.722;2023-08-20T09:27:12;1020.9;;;26.5;66.9
27437;BME280;14886;51.586;6.722;2023-08-20T09:28:12;1020.8;;;27.3;64.1
27437;BME280;14886;51.586;6.722;2023-08-20T09:29:12;1020.8;;;28.4;62.4
27437;BME280;14886;51.586;6.722;2023-08-20T09:30:13;1020.8;;;27.3;65.2
27437;BME280;14886;51.586;6.722;2023-08-20T09:31:12;1020.8;;;28.0;64.0
27437;BME280;14886;51.586;6.722;2023-08-20T09:32:14;1020.8;;;28.1;64.7
27437;BME280;14886;51.586;6.722;2023-08-20T09:33:12;1020.8;;;28.4;62.7
27437;BME280;14886;51.586;6.722;2023-08-20T09:35:17;1020.7;;;27.7;65.4
27437;BME280;14886;51.586;6.722;2023-08-20T09:36:14;1020.8;;;28.3;63.3
27437;BME280;14886;51.586;6.722;2023-08-20T09:37:13;1020.8;;;28.8;62.1
27437;BME280;14886;51.586;6.722;2023-08-20T09:38:13;1020.8;;;28.4;62.8
27437;BME280;14886;51.586;6.722;2023-08-20T09:39:13;1020.8;;;28.2;61.9
27437;BME280;14886;51.586;6.722;2023-08-20T09:40:13;1020.9;;;28.7;60.8
27437;BME280;14886;51.586;6.722;2023-08-20T09:41:13;1020.8;;;28.8;61.7
27437;BME280;14886;51.586;6.722;2023-08-20T09:42:13;1020.9;;;28.5;63.0
27437;BME280;14886;51.586;6.722;2023-08-20T09:43:13;1020.9;;;27.8;63.9
27437;BME280;14886;51.586;6.722;2023-08-20T09:44:13;1020.8;;;27.3;65.2
27437;BME280;14886;51.586;6.722;2023-08-20T09:45:15;1020.8;;;27.9;64.0
27437;BME280;14886;51.586;6.722;2023-08-20T09:46:13;1020.9;;;28.4;63.4
27437;BME280;14886;51.586;6.722;2023-08-20T09:47:14;1020.9;;;27.4;66.2
27437;BME280;14886;51.586;6.722;2023-08-20T09:48:16;1020.9;;;26.8;67.2
27437;BME280;14886;51.586;6.722;2023-08-20T09:49:14;1020.9;;;26.7;67.9
27437;BME280;14886;51.586;6.722;2023-08-20T09:50:14;1020.8;;;26.6;67.7
27437;BME280;14886;51.586;6.722;2023-08-20T09:51:17;1020.8;;;26.4;69.5
27437;BME280;14886;51.586;6.722;2023-08-20T09:52:16;1020.9;;;26.2;69.3
27437;BME280;14886;51.586;6.722;2023-08-20T09:53:20;1020.8;;;26.0;69.9
27437;BME280;14886;51.586;6.722;2023-08-20T09:54:16;1020.7;;;25.2;71.6
27437;BME280;14886;51.586;6.722;2023-08-20T09:56:38;1020.8;;;25.4;71.5
27437;BME280;14886;51.586;6.722;2023-08-20T09:58:14;1020.9;;;26.0;71.1
27437;BME280;14886;51.586;6.722;2023-08-20T09:59:14;1020.8;;;26.1;71.5
27437;BME280;14886;51.586;6.722;2023-08-20T10:00:15;1020.9;;;25.9;70.4
27437;BME280;14886;51.586;6.722;2023-08-20T10:01:15;1020.8;;;25.8;70.6
27437;BME280;14886;51.586;6.722;2023-08-20T10:02:15;1020.7;;;25.2;72.4
27437;BME280;14886;51.586;6.722;2023-08-20T10:03:15;1020.9;;;25.4;71.7
27437;BME280;14886;51.586;6.722;2023-08-20T10:04:19;1021.0;;;25.7;70.3
27437;BME280;14886;51.586;6.722;2023-08-20T10:06:15;1020.9;;;26.0;69.8
27437;BME280;14886;51.586;6.722;2023-08-20T10:07:15;1021.0;;;26.9;68.1
27437;BME280;14886;51.586;6.722;2023-08-20T10:08:15;1021.0;;;26.7;68.6
27437;BME280;14886;51.586;6.722;2023-08-20T10:09:15;1021.0;;;28.0;65.0
27437;BME280;14886;51.586;6.722;2023-08-20T10:10:15;1021.0;;;28.4;64.0
27437;BME280;14886;51.586;6.722;2023-08-20T10:11:16;1021.0;;;27.4;65.8
27437;BME280;14886;51.586;6.722;2023-08-20T10:12:15;1021.0;;;26.8;67.0
27437;BME280;14886;51.586;6.722;2023-08-20T10:13:16;1021.0;;;26.5;67.7
27437;BME280;14886;51.586;6.722;2023-08-20T10:14:16;1021.0;;;28.2;63.6
27437;BME280;14886;51.586;6.722;2023-08-20T10:15:16;1021.0;;;28.6;62.0
27437;BME280;14886;51.586;6.722;2023-08-20T10:16:17;1021.0;;;29.1;62.5
27437;BME280;14886;51.586;6.722;2023-08-20T10:17:16;1021.0;;;28.7;60.5
27437;BME280;14886;51.586;6.722;2023-08-20T10:18:18;1021.0;;;28.6;60.5
27437;BME280;14886;51.586;6.722;2023-08-20T10:19:16;1021.0;;;28.8;60.3
27437;BME280;14886;51.586;6.722;2023-08-20T10:20:17;1021.0;;;29.3;61.1
27437;BME280;14886;51.586;6.722;2023-08-20T10:21:16;1021.0;;;30.0;57.5
27437;BME280;14886;51.586;6.722;2023-08-20T10:22:16;1021.0;;;30.4;55.8
27437;BME280;14886;51.586;6.722;2023-08-20T10:23:19;1020.9;;;30.1;56.2
27437;BME280;14886;51.586;6.722;2023-08-20T10:24:16;1021.0;;;29.9;57.8
27437;BME280;14886;51.586;6.722;2023-08-20T10:25:22;1021.0;;;29.7;55.8
27437;BME280;14886;51.586;6.722;2023-08-20T10:26:19;1021.0;;;29.3;56.5
27437;BME280;14886;51.586;6.722;2023-08-20T10:27:24;1020.9;;;28.8;58.6
27437;BME280;14886;51.586;6.722;2023-08-20T10:28:19;1020.9;;;28.5;59.6
27437;BME280;14886;51.586;6.722;2023-08-20T10:30:17;1020.9;;;29.0;59.3
27437;BME280;14886;51.586;6.722;2023-08-20T10:31:17;1020.9;;;29.8;58.8
27437;BME280;14886;51.586;6.722;2023-08-20T10:32:17;1020.9;;;29.4;61.1
27437;BME280;14886;51.586;6.722;2023-08-20T10:33:17;1020.8;;;27.8;64.3
27437;BME280;14886;51.586;6.722;2023-08-20T10:34:21;1020.8;;;27.5;65.8
27437;BME280;14886;51.586;6.722;2023-08-20T10:35:18;1020.9;;;27.4;65.6
27437;BME280;14886;51.586;6.722;2023-08-20T10:36:18;1020.9;;;28.4;63.2
27437;BME280;14886;51.586;6.722;2023-08-20T10:37:25;1020.8;;;26.9;66.5